createdAt,value
2018-08-22T00:01:05.595Z,59.10
2018-08-22T00:04:08.758Z,59.30
2018-08-22T00:07:11.960Z,59.40
2018-08-22T00:10:15.093Z,59.50
2018-08-22T00:13:18.254Z,59.50
2018-08-22T00:16:21.341Z,59.30
2018-08-22T00:19:24.532Z,59.40
2018-08-22T00:22:27.791Z,59.60
2018-08-22T00:25:30.942Z,59.80
2018-08-22T00:28:34.041Z,59.50
2018-08-22T00:31:37.231Z,59.50
2018-08-22T00:34:40.344Z,60.00
2018-08-22T00:37:43.466Z,59.50
2018-08-22T00:40:46.569Z,59.70
2018-08-22T00:43:49.734Z,59.40
2018-08-22T00:46:52.895Z,59.80
2018-08-22T00:49:56.036Z,59.70
2018-08-22T00:52:59.163Z,59.50
2018-08-22T00:56:02.374Z,59.40
2018-08-22T00:59:05.570Z,59.80
2018-08-22T01:02:08.776Z,60.30
2018-08-22T01:05:11.917Z,60.00
2018-08-22T01:08:15.118Z,60.40
2018-08-22T01:11:18.324Z,60.10
2018-08-22T01:14:21.512Z,60.80
2018-08-22T01:17:24.613Z,60.70
2018-08-22T01:20:28.304Z,60.50
2018-08-22T01:23:31.509Z,60.90
2018-08-22T01:26:34.671Z,60.70
2018-08-22T01:29:37.832Z,60.90
2018-08-22T01:32:41.013Z,61.60
2018-08-22T01:35:44.199Z,60.60
2018-08-22T01:38:47.325Z,60.50
2018-08-22T01:41:50.750Z,60.70
2018-08-22T01:44:53.916Z,61.70
2018-08-22T01:47:57.041Z,61.70
2018-08-22T01:51:00.325Z,61.50
2018-08-22T01:54:03.588Z,61.00
2018-08-22T01:57:06.715Z,61.40
2018-08-22T02:00:10.093Z,62.00
2018-08-22T02:03:13.407Z,62.30
2018-08-22T02:06:18.110Z,61.20
2018-08-22T02:09:21.415Z,61.20
2018-08-22T02:12:24.581Z,60.90
2018-08-22T02:15:27.807Z,60.60
2018-08-22T02:18:31.034Z,60.70
2018-08-22T02:21:34.882Z,60.80
2018-08-22T02:28:00.969Z,60.90
2018-08-22T02:31:04.307Z,61.30
2018-08-22T02:34:07.416Z,61.30
2018-08-22T02:37:10.683Z,61.10
2018-08-22T02:40:13.980Z,61.10
2018-08-22T02:43:17.271Z,61.10
2018-08-22T02:46:20.593Z,61.40
2018-08-22T02:49:24.066Z,60.90
2018-08-22T02:52:27.234Z,60.70
2018-08-22T02:55:30.377Z,60.90
2018-08-22T02:58:33.895Z,61.50
2018-08-22T03:01:37.089Z,61.40
2018-08-22T03:04:40.504Z,61.60
2018-08-22T03:07:50.892Z,61.20
2018-08-22T03:10:54.662Z,61.50
2018-08-22T03:13:57.905Z,61.60
2018-08-22T03:17:01.199Z,61.20
2018-08-22T03:20:05.093Z,61.50
2018-08-22T03:23:15.021Z,61.20
2018-08-22T03:26:18.249Z,61.90
2018-08-22T03:29:21.340Z,61.60
2018-08-22T03:32:24.530Z,62.20
2018-08-22T03:35:27.723Z,62.00
2018-08-22T03:38:31.070Z,61.80
2018-08-22T03:41:34.284Z,62.10
2018-08-22T03:44:37.448Z,62.20
2018-08-22T03:47:40.627Z,62.50
2018-08-22T03:50:43.849Z,62.20
2018-08-22T03:53:47.062Z,62.80
2018-08-22T03:56:50.291Z,62.00
2018-08-22T03:59:53.467Z,62.10
2018-08-22T04:02:56.748Z,62.10
2018-08-22T04:05:59.928Z,61.70
2018-08-22T04:09:03.868Z,62.10
2018-08-22T04:12:07.031Z,62.10
2018-08-22T04:15:10.253Z,62.10
2018-08-22T04:18:13.501Z,62.30
2018-08-22T04:21:16.673Z,62.90
2018-08-22T04:24:19.848Z,63.20
2018-08-22T04:27:23.121Z,62.70
2018-08-22T04:30:26.308Z,62.40
2018-08-22T04:33:29.487Z,63.10
2018-08-22T04:36:32.756Z,63.10
2018-08-22T04:39:35.923Z,63.40
2018-08-22T04:42:39.187Z,63.60
2018-08-22T04:45:42.385Z,63.30
2018-08-22T04:48:45.549Z,63.10
2018-08-22T04:51:48.804Z,64.30
2018-08-22T04:54:52.059Z,63.30
2018-08-22T04:57:55.247Z,63.30
2018-08-22T05:00:58.522Z,63.20
2018-08-22T05:04:01.722Z,63.00
2018-08-22T05:07:05.021Z,63.60
2018-08-22T05:10:08.272Z,63.40
2018-08-22T05:13:11.674Z,63.60
2018-08-22T05:16:14.871Z,63.70
2018-08-22T05:19:18.092Z,63.90
2018-08-22T05:22:21.314Z,63.80
2018-08-22T05:25:24.551Z,63.70
2018-08-22T05:28:34.326Z,63.50
2018-08-22T05:31:38.048Z,63.50
2018-08-22T05:34:41.229Z,63.30
2018-08-22T05:37:44.450Z,63.80
2018-08-22T05:40:48.306Z,63.90
2018-08-22T05:43:51.559Z,63.50
2018-08-22T05:46:54.812Z,63.60
2018-08-22T05:50:04.693Z,63.70
2018-08-22T05:53:07.957Z,63.80
2018-08-22T05:56:11.201Z,64.60
2018-08-22T05:59:14.415Z,64.50
2018-08-22T06:02:18.710Z,64.60
2018-08-22T06:05:24.053Z,64.20
2018-08-22T06:08:27.207Z,64.80
2018-08-22T06:11:30.354Z,64.60
2018-08-22T06:14:33.712Z,64.70
2018-08-22T06:17:36.814Z,64.90
2018-08-22T06:20:40.009Z,64.40
2018-08-22T06:23:43.090Z,64.80
2018-08-22T06:26:46.255Z,65.20
2018-08-22T06:29:49.777Z,65.50
2018-08-22T06:32:52.905Z,65.30
2018-08-22T06:35:56.007Z,64.90
2018-08-22T06:38:59.121Z,65.80
2018-08-22T06:42:02.280Z,65.30
2018-08-22T06:45:07.018Z,65.40
2018-08-22T06:48:10.073Z,65.40
2018-08-22T06:51:13.310Z,65.50
2018-08-22T06:54:16.606Z,65.80
2018-08-22T06:57:19.781Z,65.60
2018-08-22T07:00:22.928Z,65.60
2018-08-22T07:03:26.152Z,65.60
2018-08-22T07:06:29.270Z,65.60
2018-08-22T07:09:32.497Z,65.50
2018-08-22T07:12:35.554Z,65.20
2018-08-22T07:15:39.319Z,65.40
2018-08-22T07:18:43.064Z,65.50
2018-08-22T07:21:46.572Z,65.30
2018-08-22T07:24:49.854Z,65.50
2018-08-22T07:27:53.017Z,65.20
2018-08-22T07:30:56.095Z,64.00
2018-08-22T07:33:59.365Z,64.40
2018-08-22T07:37:02.017Z,63.70
2018-08-22T07:40:05.507Z,63.70
2018-08-22T07:43:08.616Z,63.60
2018-08-22T07:46:11.743Z,62.10
2018-08-22T07:49:14.785Z,63.20
2018-08-22T07:52:17.947Z,61.90
2018-08-22T07:55:21.179Z,62.40
2018-08-22T07:58:24.404Z,62.40
2018-08-22T08:01:27.541Z,61.60
2018-08-22T08:04:30.697Z,62.20
2018-08-22T08:07:33.863Z,62.50
2018-08-22T08:10:37.342Z,64.00
2018-08-22T08:13:40.528Z,61.40
2018-08-22T08:16:43.689Z,61.50
2018-08-22T08:19:46.900Z,58.40
2018-08-22T08:22:50.082Z,58.40
2018-08-22T08:25:53.175Z,60.50
2018-08-22T08:28:56.315Z,61.80
2018-08-22T08:31:59.440Z,60.00
2018-08-22T08:35:02.626Z,59.00
2018-08-22T08:38:05.764Z,59.00
2018-08-22T08:41:09.273Z,59.10
2018-08-22T08:44:12.299Z,59.10
2018-08-22T08:47:15.375Z,58.20
2018-08-22T08:53:50.213Z,58.40
2018-08-22T08:56:53.419Z,58.10
2018-08-22T08:59:56.499Z,59.20
2018-08-22T09:02:59.634Z,59.40
2018-08-22T09:06:02.759Z,57.80
2018-08-22T09:09:08.365Z,57.70
2018-08-22T09:12:11.528Z,58.00
2018-08-22T09:15:14.611Z,57.60
2018-08-22T09:18:17.725Z,56.00
2018-08-22T09:21:20.913Z,56.90
2018-08-22T09:24:24.091Z,56.30
2018-08-22T09:27:27.164Z,53.70
2018-08-22T09:30:30.281Z,54.00
2018-08-22T09:33:33.342Z,53.50
2018-08-22T09:36:36.424Z,52.80
2018-08-22T09:39:39.569Z,54.00
2018-08-22T09:42:42.677Z,54.80
2018-08-22T09:45:45.779Z,54.50
2018-08-22T09:48:49.220Z,55.20
2018-08-22T09:51:52.316Z,54.20
2018-08-22T09:54:59.756Z,53.20
2018-08-22T09:58:02.886Z,51.60
2018-08-22T10:01:11.746Z,52.40
2018-08-22T10:04:15.065Z,53.40
2018-08-22T10:07:18.310Z,52.30
2018-08-22T10:10:21.359Z,51.00
2018-08-22T10:13:24.505Z,53.10
2018-08-22T10:16:28.500Z,50.50
2018-08-22T10:19:31.697Z,51.30
2018-08-22T10:22:34.708Z,52.10
2018-08-22T10:25:37.830Z,51.40
2018-08-22T10:28:40.946Z,52.30
2018-08-22T10:31:44.049Z,52.30
2018-08-22T10:34:47.105Z,51.70
2018-08-22T10:37:50.297Z,51.50
2018-08-22T10:40:53.689Z,50.10
2018-08-22T10:43:56.869Z,49.80
2018-08-22T10:47:01.349Z,50.20
2018-08-22T10:50:13.867Z,50.40
2018-08-22T10:53:17.749Z,51.10
2018-08-22T10:56:21.130Z,51.30
2018-08-22T10:59:25.384Z,51.30
2018-08-22T11:02:29.529Z,50.40
2018-08-22T11:05:33.052Z,48.30
2018-08-22T11:08:37.981Z,47.60
2018-08-22T11:11:42.343Z,48.10
2018-08-22T11:14:46.069Z,46.30
2018-08-22T11:17:49.320Z,45.60
2018-08-22T11:20:52.555Z,46.60
2018-08-22T11:24:14.002Z,47.70
2018-08-22T11:27:34.924Z,48.10
2018-08-22T11:30:55.575Z,48.10
2018-08-22T11:34:15.900Z,48.30
2018-08-22T11:37:20.289Z,48.90
2018-08-22T11:40:24.715Z,48.40
2018-08-22T11:43:28.270Z,49.10
2018-08-22T11:46:31.919Z,49.40
2018-08-22T11:49:36.071Z,48.00
2018-08-22T11:52:40.659Z,49.10
2018-08-22T11:55:44.292Z,48.40
2018-08-22T11:58:48.803Z,50.50
2018-08-22T12:01:53.578Z,50.10
2018-08-22T12:04:57.377Z,49.40
2018-08-22T12:08:01.060Z,49.20
2018-08-22T12:11:04.973Z,48.20
2018-08-22T12:14:09.182Z,50.00
2018-08-22T12:17:13.123Z,49.70
2018-08-22T12:20:16.686Z,48.60
2018-08-22T12:23:20.274Z,47.10
2018-08-22T12:26:23.680Z,46.80
2018-08-22T12:29:27.583Z,47.90
2018-08-22T12:32:31.144Z,48.30
2018-08-22T12:35:34.776Z,48.00
2018-08-22T12:38:38.169Z,46.70
2018-08-22T12:41:41.699Z,47.20
2018-08-22T12:44:45.618Z,48.40
2018-08-22T12:47:49.989Z,49.20
2018-08-22T12:50:53.927Z,48.10
2018-08-22T12:53:57.777Z,47.00
2018-08-22T12:57:01.421Z,49.00
2018-08-22T13:00:05.571Z,48.10
2018-08-22T13:03:09.041Z,46.00
2018-08-22T13:06:12.402Z,46.40
2018-08-22T13:09:15.972Z,45.70
2018-08-22T13:12:19.817Z,46.00
2018-08-22T13:15:23.785Z,44.40
2018-08-22T13:18:27.393Z,44.70
2018-08-22T13:21:30.539Z,44.00
2018-08-22T13:24:33.856Z,44.10
2018-08-22T13:27:36.908Z,44.30
2018-08-22T13:30:39.986Z,44.70
2018-08-22T13:33:43.086Z,45.00
2018-08-22T13:36:46.202Z,44.80
2018-08-22T13:39:49.373Z,44.20
2018-08-22T13:42:52.474Z,44.10
2018-08-22T13:45:55.569Z,44.30
2018-08-22T13:48:58.849Z,42.00
2018-08-22T13:52:01.927Z,43.70
2018-08-22T13:55:05.432Z,43.60
2018-08-22T13:58:08.501Z,43.10
2018-08-22T14:01:11.602Z,42.10
2018-08-22T14:04:14.756Z,42.90
2018-08-22T14:07:17.801Z,43.00
2018-08-22T14:10:20.925Z,42.50
2018-08-22T14:13:24.056Z,43.70
2018-08-22T14:16:27.119Z,43.20
2018-08-22T14:19:30.202Z,43.10
2018-08-22T14:22:33.313Z,42.40
2018-08-22T14:25:36.389Z,42.80
2018-08-22T14:28:39.454Z,43.20
2018-08-22T14:31:42.549Z,43.20
2018-08-22T14:34:45.643Z,43.80
2018-08-22T14:37:48.679Z,43.30
2018-08-22T14:40:51.727Z,42.30
2018-08-22T14:43:54.859Z,42.60
2018-08-22T14:46:57.937Z,41.80
2018-08-22T14:50:01.032Z,41.60
2018-08-22T14:53:04.138Z,42.50
2018-08-22T14:56:07.273Z,43.40
2018-08-22T14:59:10.379Z,44.10
2018-08-22T15:02:13.480Z,40.00
2018-08-22T15:05:16.606Z,41.10
2018-08-22T15:08:19.663Z,42.00
2018-08-22T15:11:22.717Z,41.90
2018-08-22T15:14:25.821Z,42.30
2018-08-22T15:17:28.906Z,41.70
2018-08-22T15:20:32.050Z,41.90
2018-08-22T15:23:35.139Z,43.10
2018-08-22T15:26:38.228Z,42.50
2018-08-22T15:29:41.315Z,42.00
2018-08-22T15:32:44.522Z,42.50
2018-08-22T15:35:47.591Z,42.60
2018-08-22T15:38:50.659Z,42.40
2018-08-22T15:41:53.787Z,43.70
2018-08-22T15:44:56.907Z,44.50
2018-08-22T15:47:59.989Z,44.10
2018-08-22T15:51:03.076Z,43.50
2018-08-22T15:54:10.427Z,42.80
2018-08-22T15:57:20.103Z,43.40
2018-08-22T16:00:49.708Z,44.50
2018-08-22T16:03:52.830Z,44.40
2018-08-22T16:07:03.307Z,44.90
2018-08-22T16:10:06.464Z,44.70
2018-08-22T16:13:16.227Z,44.90
2018-08-22T16:16:19.309Z,45.00
2018-08-22T16:19:22.386Z,45.00
2018-08-22T16:22:25.359Z,45.50
2018-08-22T16:25:33.789Z,45.70
2018-08-22T16:28:51.789Z,45.40
2018-08-22T16:31:55.581Z,45.80
2018-08-22T16:34:58.652Z,46.10
2018-08-22T16:38:04.424Z,45.90
2018-08-22T16:41:07.514Z,46.10
2018-08-22T16:44:10.566Z,45.40
2018-08-22T16:47:15.557Z,44.70
2018-08-22T16:50:20.492Z,45.20
2018-08-22T16:53:31.642Z,46.40
2018-08-22T16:56:35.116Z,46.10
2018-08-22T16:59:38.177Z,46.70
2018-08-22T17:02:41.250Z,46.50
2018-08-22T17:05:44.264Z,45.90
2018-08-22T17:08:47.623Z,46.20
2018-08-22T17:11:50.726Z,45.70
2018-08-22T17:14:53.718Z,46.40
2018-08-22T17:17:56.754Z,47.00
2018-08-22T17:20:59.806Z,46.90
2018-08-22T17:24:02.829Z,47.00
2018-08-22T17:27:06.036Z,47.40
2018-08-22T17:31:33.649Z,47.80
2018-08-22T17:34:36.689Z,47.60
2018-08-22T17:37:56.399Z,47.70
2018-08-22T17:40:59.490Z,47.80
2018-08-22T17:44:10.583Z,48.30
2018-08-22T17:47:13.683Z,48.00
2018-08-22T17:50:16.881Z,47.90
2018-08-22T17:53:20.853Z,48.30
2018-08-22T17:56:26.362Z,48.00
2018-08-22T17:59:30.046Z,48.10
2018-08-22T18:02:33.769Z,47.80
2018-08-22T18:05:36.983Z,48.20
2018-08-22T18:08:40.144Z,48.50
2018-08-22T18:11:43.358Z,48.50
2018-08-22T18:14:47.172Z,48.90
2018-08-22T18:17:50.602Z,48.50
2018-08-22T18:20:57.430Z,49.60
2018-08-22T18:24:01.164Z,49.50
2018-08-22T18:27:05.572Z,49.80
2018-08-22T18:30:11.376Z,50.40
2018-08-22T18:33:14.500Z,49.80
2018-08-22T18:36:17.830Z,50.90
2018-08-22T18:39:21.374Z,51.30
2018-08-22T18:42:25.478Z,51.80
2018-08-22T18:45:29.120Z,52.60
2018-08-22T18:48:33.330Z,53.00
2018-08-22T18:51:36.571Z,53.40
2018-08-22T18:54:39.699Z,53.80
2018-08-22T18:57:43.321Z,53.90
2018-08-22T19:00:46.568Z,54.00
2018-08-22T19:03:50.347Z,54.20
2018-08-22T19:06:53.751Z,54.20
2018-08-22T19:09:57.153Z,54.20
2018-08-22T19:13:05.594Z,54.00
2018-08-22T19:16:09.880Z,54.20
2018-08-22T19:19:13.017Z,54.40
2018-08-22T19:22:17.321Z,54.60
2018-08-22T19:25:20.699Z,54.50
2018-08-22T19:28:24.380Z,54.80
2018-08-22T19:31:27.710Z,55.00
2018-08-22T19:34:31.409Z,55.10
2018-08-22T19:37:34.514Z,54.90
2018-08-22T19:40:37.663Z,55.00
2018-08-22T19:43:40.777Z,54.70
2018-08-22T19:46:43.837Z,55.10
2018-08-22T19:49:53.626Z,55.00
2018-08-22T19:52:56.768Z,55.20
2018-08-22T19:55:59.876Z,55.20
2018-08-22T19:59:03.847Z,55.60
2018-08-22T20:02:06.936Z,55.40
2018-08-22T20:05:14.207Z,55.40
2018-08-22T20:08:17.568Z,55.40
2018-08-22T20:11:20.840Z,55.00
2018-08-22T20:14:24.000Z,55.00
2018-08-22T20:17:28.530Z,55.50
2018-08-22T20:20:31.841Z,55.80
2018-08-22T20:23:35.127Z,55.70
2018-08-22T20:26:43.484Z,56.00
2018-08-22T20:29:46.590Z,55.70
2018-08-22T20:32:59.114Z,55.90
2018-08-22T20:36:02.140Z,55.80
2018-08-22T20:39:10.255Z,55.90
2018-08-22T20:42:13.300Z,56.00
2018-08-22T20:45:20.938Z,56.00
2018-08-22T20:48:24.159Z,56.70
2018-08-22T20:51:29.288Z,56.10
2018-08-22T20:54:32.616Z,56.10
2018-08-22T20:57:35.769Z,56.10
2018-08-22T21:00:38.982Z,55.90
2018-08-22T21:03:42.791Z,56.00
2018-08-22T21:06:45.926Z,56.10
2018-08-22T21:09:49.166Z,56.00
2018-08-22T21:12:52.367Z,56.10
2018-08-22T21:15:55.823Z,56.40
2018-08-22T21:18:58.902Z,57.10
2018-08-22T21:22:02.591Z,57.20
2018-08-22T21:25:05.983Z,57.40
2018-08-22T21:28:09.232Z,57.60
2018-08-22T21:31:28.668Z,57.80
2018-08-22T21:34:31.785Z,58.10
2018-08-22T21:37:34.984Z,57.50
2018-08-22T21:40:38.192Z,57.80
2018-08-22T21:43:41.320Z,57.90
2018-08-22T21:46:44.696Z,58.60
2018-08-22T21:49:47.982Z,58.50
2018-08-22T21:52:57.454Z,58.50
2018-08-22T21:56:00.547Z,58.70
2018-08-22T21:59:03.725Z,58.00
2018-08-22T22:02:08.159Z,58.40
2018-08-22T22:05:12.019Z,58.40
2018-08-22T22:08:16.704Z,58.70
2018-08-22T22:11:21.095Z,58.50
2018-08-22T22:14:26.921Z,58.60
2018-08-22T22:17:32.693Z,58.70
2018-08-22T22:20:35.822Z,58.90
2018-08-22T22:23:48.181Z,58.40
2018-08-22T22:26:59.078Z,58.40
2018-08-22T22:30:05.199Z,58.50
2018-08-22T22:33:46.806Z,58.40
2018-08-22T22:36:50.873Z,58.40
2018-08-22T22:39:53.966Z,58.70
2018-08-22T22:42:58.456Z,58.50
2018-08-22T23:00:31.270Z,58.80
2018-08-22T23:03:34.458Z,59.40
2018-08-22T23:06:37.553Z,59.90
2018-08-22T23:09:52.209Z,59.40
2018-08-22T23:12:55.389Z,59.50
2018-08-22T23:15:58.537Z,59.50
2018-08-22T23:19:01.621Z,59.90
2018-08-22T23:22:04.791Z,59.20
2018-08-22T23:25:08.223Z,59.40
2018-08-22T23:28:11.365Z,59.70
2018-08-22T23:31:16.115Z,60.00
2018-08-22T23:34:19.311Z,60.10
2018-08-22T23:37:22.406Z,59.70
2018-08-22T23:40:26.713Z,59.80
2018-08-22T23:44:05.735Z,59.80
2018-08-22T23:47:08.962Z,60.10
2018-08-22T23:50:12.090Z,60.20
2018-08-22T23:53:15.243Z,60.00
2018-08-22T23:56:24.447Z,59.90
2018-08-22T23:59:27.559Z,59.90
